sensor_id;sensor_type;location;lat;lon;timestamp;pressure;altitude;pressure_sealevel;temperature;humidity
46464;BME280;32161;48.148;-1.554;2022-08-19T00:00:40;101212.84;;;21.21;78.65
46464;BME280;32161;48.148;-1.554;2022-08-19T00:03:08;101212.31;;;21.19;78.34
46464;BME280;32161;48.148;-1.554;2022-08-19T00:05:35;101214.53;;;21.17;78.14
46464;BME280;32161;48.148;-1.554;2022-08-19T00:08:04;101219.78;;;21.19;78.09
46464;BME280;32161;48.148;-1.554;2022-08-19T00:10:33;101233.38;;;21.15;78.05
46464;BME280;32161;48.148;-1.554;2022-08-19T00:13:00;101223.44;;;21.14;78.16
46464;BME280;32161;48.148;-1.554;2022-08-19T00:15:28;101220.06;;;21.17;78.20
46464;BME280;32161;48.148;-1.554;2022-08-19T00:17:55;101223.13;;;21.16;78.14
46464;BME280;32161;48.148;-1.554;2022-08-19T00:20:24;101209.38;;;21.11;78.19
46464;BME280;32161;48.148;-1.554;2022-08-19T00:22:52;101203.63;;;21.02;78.84
46464;BME280;32161;48.148;-1.554;2022-08-19T00:25:21;101213.31;;;21.00;78.55
46464;BME280;32161;48.148;-1.554;2022-08-19T00:27:50;101208.88;;;20.98;79.12
46464;BME280;32161;48.148;-1.554;2022-08-19T00:30:18;101215.53;;;20.97;79.10
46464;BME280;32161;48.148;-1.554;2022-08-19T00:32:46;101210.84;;;20.98;79.23
46464;BME280;32161;48.148;-1.554;2022-08-19T00:35:13;101213.91;;;20.96;79.19
46464;BME280;32161;48.148;-1.554;2022-08-19T00:37:41;101217.19;;;20.98;78.86
46464;BME280;32161;48.148;-1.554;2022-08-19T00:40:11;101212.50;;;20.99;79.19
46464;BME280;32161;48.148;-1.554;2022-08-19T00:42:39;101217.72;;;21.01;79.19
46464;BME280;32161;48.148;-1.554;2022-08-19T00:45:14;101213.59;;;20.98;79.77
46464;BME280;32161;48.148;-1.554;2022-08-19T00:47:43;101215.53;;;20.97;79.61
46464;BME280;32161;48.148;-1.554;2022-08-19T00:50:13;101207.81;;;21.00;80.46
46464;BME280;32161;48.148;-1.554;2022-08-19T00:52:45;101210.84;;;20.98;80.21
46464;BME280;32161;48.148;-1.554;2022-08-19T00:55:17;101196.19;;;20.97;80.41
46464;BME280;32161;48.148;-1.554;2022-08-19T00:57:51;101202.78;;;21.02;80.83
46464;BME280;32161;48.148;-1.554;2022-08-19T01:00:25;101203.38;;;20.98;80.44
46464;BME280;32161;48.148;-1.554;2022-08-19T01:02:53;101190.97;;;20.96;80.47
46464;BME280;32161;48.148;-1.554;2022-08-19T01:05:24;101205.03;;;21.00;80.72
46464;BME280;32161;48.148;-1.554;2022-08-19T01:07:54;101207.50;;;21.01;81.07
46464;BME280;32161;48.148;-1.554;2022-08-19T01:10:25;101201.97;;;21.01;81.21
46464;BME280;32161;48.148;-1.554;2022-08-19T01:12:53;101201.16;;;21.01;80.94
46464;BME280;32161;48.148;-1.554;2022-08-19T01:15:27;101197.56;;;21.00;81.27
46464;BME280;32161;48.148;-1.554;2022-08-19T01:17:58;101198.38;;;21.01;81.06
46464;BME280;32161;48.148;-1.554;2022-08-19T01:20:26;101201.44;;;20.99;81.61
46464;BME280;32161;48.148;-1.554;2022-08-19T01:22:58;101191.50;;;20.98;81.69
46464;BME280;32161;48.148;-1.554;2022-08-19T01:25:30;101197.00;;;21.03;81.80
46464;BME280;32161;48.148;-1.554;2022-08-19T01:27:58;101193.09;;;21.04;81.62
46464;BME280;32161;48.148;-1.554;2022-08-19T01:30:31;101197.81;;;21.04;82.06
46464;BME280;32161;48.148;-1.554;2022-08-19T01:32:59;101193.63;;;21.06;82.18
46464;BME280;32161;48.148;-1.554;2022-08-19T01:35:29;101196.13;;;21.08;81.81
46464;BME280;32161;48.148;-1.554;2022-08-19T01:38:03;101201.66;;;21.08;81.54
46464;BME280;32161;48.148;-1.554;2022-08-19T01:40:37;101193.34;;;21.08;81.66
46464;BME280;32161;48.148;-1.554;2022-08-19T01:43:06;101195.00;;;21.09;81.71
46464;BME280;32161;48.148;-1.554;2022-08-19T01:45:35;101201.34;;;21.09;81.88
46464;BME280;32161;48.148;-1.554;2022-08-19T01:48:04;101194.19;;;21.08;82.17
46464;BME280;32161;48.148;-1.554;2022-08-19T01:50:33;101194.72;;;21.10;82.38
46464;BME280;32161;48.148;-1.554;2022-08-19T01:53:05;101197.25;;;21.07;82.43
46464;BME280;32161;48.148;-1.554;2022-08-19T01:55:35;101193.09;;;21.04;82.75
46464;BME280;32161;48.148;-1.554;2022-08-19T01:58:05;101194.81;;;21.00;83.03
46464;BME280;32161;48.148;-1.554;2022-08-19T02:00:35;101204.72;;;21.01;82.70
46464;BME280;32161;48.148;-1.554;2022-08-19T02:03:03;101197.81;;;21.04;83.10
46464;BME280;32161;48.148;-1.554;2022-08-19T02:05:30;101208.31;;;21.02;83.11
46464;BME280;32161;48.148;-1.554;2022-08-19T02:07:58;101208.13;;;20.93;83.21
46464;BME280;32161;48.148;-1.554;2022-08-19T02:10:27;101202.59;;;20.93;83.63
46464;BME280;32161;48.148;-1.554;2022-08-19T02:12:55;101202.06;;;20.91;83.68
46464;BME280;32161;48.148;-1.554;2022-08-19T02:15:22;101196.28;;;20.87;83.78
46464;BME280;32161;48.148;-1.554;2022-08-19T02:17:50;101201.53;;;20.89;83.71
46464;BME280;32161;48.148;-1.554;2022-08-19T02:20:18;101198.19;;;20.92;84.16
46464;BME280;32161;48.148;-1.554;2022-08-19T02:22:46;101207.56;;;20.96;84.01
46464;BME280;32161;48.148;-1.554;2022-08-19T02:25:14;101210.00;;;20.97;84.03
46464;BME280;32161;48.148;-1.554;2022-08-19T02:27:43;101205.59;;;20.96;83.91
46464;BME280;32161;48.148;-1.554;2022-08-19T02:30:14;101197.88;;;20.93;84.30
46464;BME280;32161;48.148;-1.554;2022-08-19T02:32:43;101198.44;;;20.95;84.32
46464;BME280;32161;48.148;-1.554;2022-08-19T02:35:11;101202.03;;;20.96;84.39
46464;BME280;32161;48.148;-1.554;2022-08-19T02:37:39;101201.78;;;20.92;84.85
46464;BME280;32161;48.148;-1.554;2022-08-19T02:40:24;101214.72;;;20.97;84.31
46464;BME280;32161;48.148;-1.554;2022-08-19T02:42:54;101210.84;;;20.98;84.63
46464;BME280;32161;48.148;-1.554;2022-08-19T02:45:22;101203.66;;;20.97;84.64
46464;BME280;32161;48.148;-1.554;2022-08-19T02:47:49;101211.38;;;21.00;84.47
46464;BME280;32161;48.148;-1.554;2022-08-19T02:50:17;101201.41;;;21.04;84.57
46464;BME280;32161;48.148;-1.554;2022-08-19T02:52:44;101197.25;;;21.07;84.57
46464;BME280;32161;48.148;-1.554;2022-08-19T02:55:12;101205.22;;;21.08;84.38
46464;BME280;32161;48.148;-1.554;2022-08-19T02:57:39;101206.88;;;21.09;84.38
46464;BME280;32161;48.148;-1.554;2022-08-19T03:00:10;101209.63;;;21.09;84.28
46464;BME280;32161;48.148;-1.554;2022-08-19T03:02:39;101205.22;;;21.08;84.56
46464;BME280;32161;48.148;-1.554;2022-08-19T03:05:09;101196.13;;;21.08;84.35
46464;BME280;32161;48.148;-1.554;2022-08-19T03:07:37;101206.34;;;21.07;84.49
46464;BME280;32161;48.148;-1.554;2022-08-19T03:10:06;101208.81;;;21.09;84.36
46464;BME280;32161;48.148;-1.554;2022-08-19T03:12:36;101197.50;;;21.10;84.44
46464;BME280;32161;48.148;-1.554;2022-08-19T03:15:07;101197.25;;;21.07;84.51
46464;BME280;32161;48.148;-1.554;2022-08-19T03:17:36;101198.63;;;21.04;84.96
46464;BME280;32161;48.148;-1.554;2022-08-19T03:20:05;101204.72;;;21.01;85.03
46464;BME280;32161;48.148;-1.554;2022-08-19T03:22:33;101199.78;;;20.98;85.51
46464;BME280;32161;48.148;-1.554;2022-08-19T03:25:00;101211.97;;;20.97;85.63
46464;BME280;32161;48.148;-1.554;2022-08-19T03:27:28;101199.53;;;20.94;85.80
46464;BME280;32161;48.148;-1.554;2022-08-19T03:29:56;101210.59;;;20.94;86.08
46464;BME280;32161;48.148;-1.554;2022-08-19T03:32:23;101193.19;;;20.94;86.56
46464;BME280;32161;48.148;-1.554;2022-08-19T03:34:52;101201.78;;;20.92;86.56
46464;BME280;32161;48.148;-1.554;2022-08-19T03:37:20;101196.00;;;20.89;86.95
